sensor_id;sensor_type;location;lat;lon;timestamp;temperature;humidity
61323;DHT22;47203;48.428;11.974;2022-12-24T00:01:22;15.10;73.80
61323;DHT22;47203;48.428;11.974;2022-12-24T00:03:28;15.10;73.90
61323;DHT22;47203;48.428;11.974;2022-12-24T00:05:33;15.10;73.90
61323;DHT22;47203;48.428;11.974;2022-12-24T00:07:41;15.10;73.80
61323;DHT22;47203;48.428;11.974;2022-12-24T00:11:52;15.00;73.80
61323;DHT22;47203;48.428;11.974;2022-12-24T00:14:00;15.10;73.80
61323;DHT22;47203;48.428;11.974;2022-12-24T00:16:06;15.00;73.70
61323;DHT22;47203;48.428;11.974;2022-12-24T00:18:11;15.10;73.80
61323;DHT22;47203;48.428;11.974;2022-12-24T00:22:23;15.00;73.70
61323;DHT22;47203;48.428;11.974;2022-12-24T00:24:28;15.00;73.70
61323;DHT22;47203;48.428;11.974;2022-12-24T00:26:34;15.00;73.70
61323;DHT22;47203;48.428;11.974;2022-12-24T00:28:40;15.10;73.70
61323;DHT22;47203;48.428;11.974;2022-12-24T00:30:48;15.00;73.60
61323;DHT22;47203;48.428;11.974;2022-12-24T00:32:54;15.00;73.70
61323;DHT22;47203;48.428;11.974;2022-12-24T00:34:59;14.90;73.70
61323;DHT22;47203;48.428;11.974;2022-12-24T00:37:05;14.90;73.70
61323;DHT22;47203;48.428;11.974;2022-12-24T00:39:11;16.50;74.60
61323;DHT22;47203;48.428;11.974;2022-12-24T00:41:16;14.90;73.70
61323;DHT22;47203;48.428;11.974;2022-12-24T00:43:31;14.90;73.80
61323;DHT22;47203;48.428;11.974;2022-12-24T00:47:45;14.90;73.70
61323;DHT22;47203;48.428;11.974;2022-12-24T00:49:50;15.00;73.80
61323;DHT22;47203;48.428;11.974;2022-12-24T00:51:56;14.90;73.70
61323;DHT22;47203;48.428;11.974;2022-12-24T00:58:13;14.90;73.60
61323;DHT22;47203;48.428;11.974;2022-12-24T01:00:19;15.00;73.70
61323;DHT22;47203;48.428;11.974;2022-12-24T01:02:24;14.90;73.40
61323;DHT22;47203;48.428;11.974;2022-12-24T01:06:51;15.00;73.30
61323;DHT22;47203;48.428;11.974;2022-12-24T01:08:57;14.90;73.10
61323;DHT22;47203;48.428;11.974;2022-12-24T01:11:04;15.00;73.00
61323;DHT22;47203;48.428;11.974;2022-12-24T01:13:10;15.00;72.90
61323;DHT22;47203;48.428;11.974;2022-12-24T01:15:15;15.00;72.80
61323;DHT22;47203;48.428;11.974;2022-12-24T01:17:21;15.00;72.70
61323;DHT22;47203;48.428;11.974;2022-12-24T01:19:26;15.10;72.80
61323;DHT22;47203;48.428;11.974;2022-12-24T01:21:34;15.00;72.60
61323;DHT22;47203;48.428;11.974;2022-12-24T01:23:40;15.00;72.40
61323;DHT22;47203;48.428;11.974;2022-12-24T01:25:45;15.00;72.40
61323;DHT22;47203;48.428;11.974;2022-12-24T01:27:51;15.00;72.30
61323;DHT22;47203;48.428;11.974;2022-12-24T01:36:14;15.00;72.30
61323;DHT22;47203;48.428;11.974;2022-12-24T01:38:23;15.00;72.40
61323;DHT22;47203;48.428;11.974;2022-12-24T01:40:28;15.00;72.40
61323;DHT22;47203;48.428;11.974;2022-12-24T01:42:47;15.00;72.80
61323;DHT22;47203;48.428;11.974;2022-12-24T01:45:33;15.00;72.70
61323;DHT22;47203;48.428;11.974;2022-12-24T01:47:46;15.00;72.40
61323;DHT22;47203;48.428;11.974;2022-12-24T01:49:54;14.90;72.00
61323;DHT22;47203;48.428;11.974;2022-12-24T01:54:17;14.80;71.70
61323;DHT22;47203;48.428;11.974;2022-12-24T01:56:28;14.90;71.80
61323;DHT22;47203;48.428;11.974;2022-12-24T02:02:51;14.80;71.60
61323;DHT22;47203;48.428;11.974;2022-12-24T02:05:02;14.70;71.80
61323;DHT22;47203;48.428;11.974;2022-12-24T02:07:11;14.70;71.60
61323;DHT22;47203;48.428;11.974;2022-12-24T02:09:19;14.70;71.80
61323;DHT22;47203;48.428;11.974;2022-12-24T02:13:31;18.10;73.70
61323;DHT22;47203;48.428;11.974;2022-12-24T02:18:02;14.70;71.60
61323;DHT22;47203;48.428;11.974;2022-12-24T02:23:15;14.60;71.60
61323;DHT22;47203;48.428;11.974;2022-12-24T02:25:50;14.60;71.70
61323;DHT22;47203;48.428;11.974;2022-12-24T02:28:13;14.70;71.80
61323;DHT22;47203;48.428;11.974;2022-12-24T02:30:32;14.60;71.80
61323;DHT22;47203;48.428;11.974;2022-12-24T02:33:07;14.60;71.70
61323;DHT22;47203;48.428;11.974;2022-12-24T02:35:20;14.70;71.90
61323;DHT22;47203;48.428;11.974;2022-12-24T02:37:35;14.60;71.80
61323;DHT22;47203;48.428;11.974;2022-12-24T02:39:47;14.60;71.90
61323;DHT22;47203;48.428;11.974;2022-12-24T02:41:57;14.60;71.90
61323;DHT22;47203;48.428;11.974;2022-12-24T02:44:12;14.60;71.90
61323;DHT22;47203;48.428;11.974;2022-12-24T02:46:23;14.50;71.90
61323;DHT22;47203;48.428;11.974;2022-12-24T02:50:40;14.60;71.90
61323;DHT22;47203;48.428;11.974;2022-12-24T02:52:58;14.50;71.80
61323;DHT22;47203;48.428;11.974;2022-12-24T02:55:08;14.50;71.90
61323;DHT22;47203;48.428;11.974;2022-12-24T02:57:21;14.50;71.90
61323;DHT22;47203;48.428;11.974;2022-12-24T02:59:53;14.60;71.90
61323;DHT22;47203;48.428;11.974;2022-12-24T03:02:17;14.30;71.60
61323;DHT22;47203;48.428;11.974;2022-12-24T03:04:34;14.50;71.60
61323;DHT22;47203;48.428;11.974;2022-12-24T03:06:56;14.50;71.60
61323;DHT22;47203;48.428;11.974;2022-12-24T03:09:17;14.50;71.70
61323;DHT22;47203;48.428;11.974;2022-12-24T03:11:28;14.50;71.60
61323;DHT22;47203;48.428;11.974;2022-12-24T03:13:33;14.50;71.60
61323;DHT22;47203;48.428;11.974;2022-12-24T03:15:40;14.40;71.50
61323;DHT22;47203;48.428;11.974;2022-12-24T03:17:51;14.50;71.60
61323;DHT22;47203;48.428;11.974;2022-12-24T03:19:59;14.50;71.60
61323;DHT22;47203;48.428;11.974;2022-12-24T03:22:08;14.40;71.60
61323;DHT22;47203;48.428;11.974;2022-12-24T03:24:16;14.40;71.50
61323;DHT22;47203;48.428;11.974;2022-12-24T03:26:23;14.40;71.60
61323;DHT22;47203;48.428;11.974;2022-12-24T03:28:31;14.40;71.50
61323;DHT22;47203;48.428;11.974;2022-12-24T03:30:38;14.50;71.50
61323;DHT22;47203;48.428;11.974;2022-12-24T03:32:45;14.40;71.40
61323;DHT22;47203;48.428;11.974;2022-12-24T03:34:54;14.50;71.50
61323;DHT22;47203;48.428;11.974;2022-12-24T03:36:59;14.40;71.30
61323;DHT22;47203;48.428;11.974;2022-12-24T03:39:06;14.40;71.30
61323;DHT22;47203;48.428;11.974;2022-12-24T03:41:13;14.40;71.30
61323;DHT22;47203;48.428;11.974;2022-12-24T03:43:18;14.40;71.30
61323;DHT22;47203;48.428;11.974;2022-12-24T03:45:23;14.50;71.30
61323;DHT22;47203;48.428;11.974;2022-12-24T03:47:30;13.70;70.80
61323;DHT22;47203;48.428;11.974;2022-12-24T03:49:38;14.50;71.20
61323;DHT22;47203;48.428;11.974;2022-12-24T03:51:43;14.50;71.00
61323;DHT22;47203;48.428;11.974;2022-12-24T03:53:51;14.50;71.20
61323;DHT22;47203;48.428;11.974;2022-12-24T03:55:57;14.50;71.00
61323;DHT22;47203;48.428;11.974;2022-12-24T03:58:02;14.50;71.00
61323;DHT22;47203;48.428;11.974;2022-12-24T04:00:09;14.60;71.10
61323;DHT22;47203;48.428;11.974;2022-12-24T04:02:15;14.60;71.10
61323;DHT22;47203;48.428;11.974;2022-12-24T04:04:21;14.50;70.90
61323;DHT22;47203;48.428;11.974;2022-12-24T04:06:29;14.50;71.00
61323;DHT22;47203;48.428;11.974;2022-12-24T04:08:34;14.50;70.90
61323;DHT22;47203;48.428;11.974;2022-12-24T04:10:40;14.50;70.90
61323;DHT22;47203;48.428;11.974;2022-12-24T04:12:45;14.50;70.80
61323;DHT22;47203;48.428;11.974;2022-12-24T04:14:51;14.50;70.80
61323;DHT22;47203;48.428;11.974;2022-12-24T04:19:02;14.50;70.70
61323;DHT22;47203;48.428;11.974;2022-12-24T04:23:16;14.50;70.70
61323;DHT22;47203;48.428;11.974;2022-12-24T04:25:22;14.50;70.40
61323;DHT22;47203;48.428;11.974;2022-12-24T04:27:27;14.50;70.40
61323;DHT22;47203;48.428;11.974;2022-12-24T04:31:39;14.60;70.60
61323;DHT22;47203;48.428;11.974;2022-12-24T04:35:50;14.60;70.70
61323;DHT22;47203;48.428;11.974;2022-12-24T04:37:56;14.60;70.50
61323;DHT22;47203;48.428;11.974;2022-12-24T04:42:11;14.70;70.30
61323;DHT22;47203;48.428;11.974;2022-12-24T04:44:16;14.70;70.40
61323;DHT22;47203;48.428;11.974;2022-12-24T04:46:23;14.70;70.40
61323;DHT22;47203;48.428;11.974;2022-12-24T04:48:32;14.70;70.20
61323;DHT22;47203;48.428;11.974;2022-12-24T04:50:38;14.80;70.40
61323;DHT22;47203;48.428;11.974;2022-12-24T04:52:44;14.70;70.20
61323;DHT22;47203;48.428;11.974;2022-12-24T05:01:12;14.80;69.90
61323;DHT22;47203;48.428;11.974;2022-12-24T05:03:20;14.70;69.70
61323;DHT22;47203;48.428;11.974;2022-12-24T05:05:26;14.70;69.90
61323;DHT22;47203;48.428;11.974;2022-12-24T05:07:32;14.70;70.00
61323;DHT22;47203;48.428;11.974;2022-12-24T05:09:38;14.70;70.10
61323;DHT22;47203;48.428;11.974;2022-12-24T05:11:44;14.60;69.80
61323;DHT22;47203;48.428;11.974;2022-12-24T05:15:57;14.60;70.00
61323;DHT22;47203;48.428;11.974;2022-12-24T05:18:03;14.60;70.00
61323;DHT22;47203;48.428;11.974;2022-12-24T05:24:32;14.50;70.00
61323;DHT22;47203;48.428;11.974;2022-12-24T05:26:52;14.60;69.70
61323;DHT22;47203;48.428;11.974;2022-12-24T05:29:03;14.50;69.80
61323;DHT22;47203;48.428;11.974;2022-12-24T05:31:10;14.50;69.50
61323;DHT22;47203;48.428;11.974;2022-12-24T05:33:16;14.50;69.40
61323;DHT22;47203;48.428;11.974;2022-12-24T05:35:21;14.50;69.40
61323;DHT22;47203;48.428;11.974;2022-12-24T05:37:27;14.40;69.50
61323;DHT22;47203;48.428;11.974;2022-12-24T05:39:32;14.50;69.80
61323;DHT22;47203;48.428;11.974;2022-12-24T05:43:43;14.40;69.70
61323;DHT22;47203;48.428;11.974;2022-12-24T05:45:51;14.40;69.80
61323;DHT22;47203;48.428;11.974;2022-12-24T05:48:02;14.40;69.50
61323;DHT22;47203;48.428;11.974;2022-12-24T05:50:09;14.50;70.00
61323;DHT22;47203;48.428;11.974;2022-12-24T05:56:26;14.40;69.50
61323;DHT22;47203;48.428;11.974;2022-12-24T05:58:32;14.40;69.50
61323;DHT22;47203;48.428;11.974;2022-12-24T06:00:37;14.40;69.40
61323;DHT22;47203;48.428;11.974;2022-12-24T06:02:45;14.30;69.60
61323;DHT22;47203;48.428;11.974;2022-12-24T06:04:51;14.30;69.40
61323;DHT22;47203;48.428;11.974;2022-12-24T06:06:56;14.30;69.30
61323;DHT22;47203;48.428;11.974;2022-12-24T06:11:10;14.30;68.70
61323;DHT22;47203;48.428;11.974;2022-12-24T06:13:17;14.20;68.40
61323;DHT22;47203;48.428;11.974;2022-12-24T06:15:22;14.20;68.40
61323;DHT22;47203;48.428;11.974;2022-12-24T06:17:27;14.20;68.20
61323;DHT22;47203;48.428;11.974;2022-12-24T06:19:35;14.20;68.20
61323;DHT22;47203;48.428;11.974;2022-12-24T06:21:41;14.20;67.80
61323;DHT22;47203;48.428;11.974;2022-12-24T06:23:47;14.10;67.80
61323;DHT22;47203;48.428;11.974;2022-12-24T06:25:55;14.10;67.70
61323;DHT22;47203;48.428;11.974;2022-12-24T06:28:02;14.10;67.70
61323;DHT22;47203;48.428;11.974;2022-12-24T06:30:09;14.10;68.20
61323;DHT22;47203;48.428;11.974;2022-12-24T06:32:15;14.00;67.90
61323;DHT22;47203;48.428;11.974;2022-12-24T06:36:28;13.90;68.30
61323;DHT22;47203;48.428;11.974;2022-12-24T06:38:34;14.00;68.00
61323;DHT22;47203;48.428;11.974;2022-12-24T06:42:47;13.90;68.00
61323;DHT22;47203;48.428;11.974;2022-12-24T06:44:52;13.90;68.00
61323;DHT22;47203;48.428;11.974;2022-12-24T06:47:03;13.90;67.90
61323;DHT22;47203;48.428;11.974;2022-12-24T06:49:08;13.90;68.00
61323;DHT22;47203;48.428;11.974;2022-12-24T06:51:15;14.00;68.30
61323;DHT22;47203;48.428;11.974;2022-12-24T06:53:24;14.00;68.00
61323;DHT22;47203;48.428;11.974;2022-12-24T06:55:29;13.90;68.00
61323;DHT22;47203;48.428;11.974;2022-12-24T06:57:36;14.00;68.20
61323;DHT22;47203;48.428;11.974;2022-12-24T06:59:41;14.10;68.40
61323;DHT22;47203;48.428;11.974;2022-12-24T07:01:46;14.00;67.90
61323;DHT22;47203;48.428;11.974;2022-12-24T07:03:52;14.00;67.80
61323;DHT22;47203;48.428;11.974;2022-12-24T07:05:58;14.00;67.90
61323;DHT22;47203;48.428;11.974;2022-12-24T07:08:04;14.00;68.00
61323;DHT22;47203;48.428;11.974;2022-12-24T07:10:14;14.00;68.00
61323;DHT22;47203;48.428;11.974;2022-12-24T07:12:20;14.00;67.80
61323;DHT22;47203;48.428;11.974;2022-12-24T07:14:26;14.00;68.00
61323;DHT22;47203;48.428;11.974;2022-12-24T07:16:32;14.00;67.90
61323;DHT22;47203;48.428;11.974;2022-12-24T07:18:37;14.00;68.10
61323;DHT22;47203;48.428;11.974;2022-12-24T07:20:43;14.00;68.00
61323;DHT22;47203;48.428;11.974;2022-12-24T07:22:48;14.00;68.20
61323;DHT22;47203;48.428;11.974;2022-12-24T07:24:54;14.00;68.20
61323;DHT22;47203;48.428;11.974;2022-12-24T07:27:02;14.00;68.10
61323;DHT22;47203;48.428;11.974;2022-12-24T07:29:07;14.00;68.00
61323;DHT22;47203;48.428;11.974;2022-12-24T07:31:13;14.00;68.00
61323;DHT22;47203;48.428;11.974;2022-12-24T07:35:24;14.00;68.00
61323;DHT22;47203;48.428;11.974;2022-12-24T07:37:29;14.00;68.00
61323;DHT22;47203;48.428;11.974;2022-12-24T07:39:35;14.00;68.00
61323;DHT22;47203;48.428;11.974;2022-12-24T07:41:40;14.00;68.00
61323;DHT22;47203;48.428;11.974;2022-12-24T07:43:50;14.00;68.10
61323;DHT22;47203;48.428;11.974;2022-12-24T07:45:56;13.90;68.20
61323;DHT22;47203;48.428;11.974;2022-12-24T07:48:02;13.90;68.30
61323;DHT22;47203;48.428;11.974;2022-12-24T07:52:15;13.80;68.30
61323;DHT22;47203;48.428;11.974;2022-12-24T07:54:20;13.80;68.40
61323;DHT22;47203;48.428;11.974;2022-12-24T08:02:45;13.70;68.60
61323;DHT22;47203;48.428;11.974;2022-12-24T08:04:51;13.70;68.80
61323;DHT22;47203;48.428;11.974;2022-12-24T08:06:56;13.70;68.80
61323;DHT22;47203;48.428;11.974;2022-12-24T08:09:02;13.70;68.80
61323;DHT22;47203;48.428;11.974;2022-12-24T08:13:14;13.70;68.90
61323;DHT22;47203;48.428;11.974;2022-12-24T08:15:20;13.70;68.80
61323;DHT22;47203;48.428;11.974;2022-12-24T08:27:57;13.60;69.40
61323;DHT22;47203;48.428;11.974;2022-12-24T08:30:04;13.60;69.30
61323;DHT22;47203;48.428;11.974;2022-12-24T08:32:19;13.60;70.00
61323;DHT22;47203;48.428;11.974;2022-12-24T08:34:28;13.60;69.50
61323;DHT22;47203;48.428;11.974;2022-12-24T08:36:34;13.60;69.50
61323;DHT22;47203;48.428;11.974;2022-12-24T08:38:39;13.60;69.50
61323;DHT22;47203;48.428;11.974;2022-12-24T08:42:53;13.60;69.90
61323;DHT22;47203;48.428;11.974;2022-12-24T08:47:06;13.70;70.30
61323;DHT22;47203;48.428;11.974;2022-12-24T08:49:15;13.70;70.30
61323;DHT22;47203;48.428;11.974;2022-12-24T08:51:23;13.70;70.30
61323;DHT22;47203;48.428;11.974;2022-12-24T08:53:29;13.70;70.30
61323;DHT22;47203;48.428;11.974;2022-12-24T08:55:34;13.80;70.40
61323;DHT22;47203;48.428;11.974;2022-12-24T08:57:40;13.90;70.40
61323;DHT22;47203;48.428;11.974;2022-12-24T08:59:46;13.90;70.20
61323;DHT22;47203;48.428;11.974;2022-12-24T09:01:51;13.90;70.10
61323;DHT22;47203;48.428;11.974;2022-12-24T09:03:57;13.70;69.80
61323;DHT22;47203;48.428;11.974;2022-12-24T09:06:03;13.90;69.80
61323;DHT22;47203;48.428;11.974;2022-12-24T09:08:11;14.00;70.00
61323;DHT22;47203;48.428;11.974;2022-12-24T09:10:16;14.00;69.90
61323;DHT22;47203;48.428;11.974;2022-12-24T09:12:22;14.00;69.90
61323;DHT22;47203;48.428;11.974;2022-12-24T09:18:39;14.00;69.80
61323;DHT22;47203;48.428;11.974;2022-12-24T09:20:44;14.10;69.60
61323;DHT22;47203;48.428;11.974;2022-12-24T09:22:57;14.10;69.70
61323;DHT22;47203;48.428;11.974;2022-12-24T09:25:06;14.10;69.50
61323;DHT22;47203;48.428;11.974;2022-12-24T09:29:18;14.10;69.50
61323;DHT22;47203;48.428;11.974;2022-12-24T09:31:24;14.10;69.90
61323;DHT22;47203;48.428;11.974;2022-12-24T09:33:33;14.20;69.40
61323;DHT22;47203;48.428;11.974;2022-12-24T09:35:40;14.20;69.00
61323;DHT22;47203;48.428;11.974;2022-12-24T09:37:45;14.20;69.20
61323;DHT22;47203;48.428;11.974;2022-12-24T09:40:11;14.30;69.30
61323;DHT22;47203;48.428;11.974;2022-12-24T09:42:32;14.30;69.00
61323;DHT22;47203;48.428;11.974;2022-12-24T09:44:48;14.30;68.90
61323;DHT22;47203;48.428;11.974;2022-12-24T09:47:02;14.40;69.00
61323;DHT22;47203;48.428;11.974;2022-12-24T09:49:19;14.40;68.80
61323;DHT22;47203;48.428;11.974;2022-12-24T09:51:30;14.50;68.80
61323;DHT22;47203;48.428;11.974;2022-12-24T09:53:44;14.50;68.50
61323;DHT22;47203;48.428;11.974;2022-12-24T09:56:00;14.60;68.40
61323;DHT22;47203;48.428;11.974;2022-12-24T09:58:09;14.50;67.60
61323;DHT22;47203;48.428;11.974;2022-12-24T10:00:26;14.70;68.60
61323;DHT22;47203;48.428;11.974;2022-12-24T10:02:33;14.70;68.20
61323;DHT22;47203;48.428;11.974;2022-12-24T10:04:39;14.70;68.40
61323;DHT22;47203;48.428;11.974;2022-12-24T10:06:50;14.80;67.40
61323;DHT22;47203;48.428;11.974;2022-12-24T10:09:06;14.70;67.90
61323;DHT22;47203;48.428;11.974;2022-12-24T10:11:25;14.80;66.90
61323;DHT22;47203;48.428;11.974;2022-12-24T10:13:45;14.70;66.60
61323;DHT22;47203;48.428;11.974;2022-12-24T10:16:11;14.70;66.60
61323;DHT22;47203;48.428;11.974;2022-12-24T10:18:28;14.70;66.80
61323;DHT22;47203;48.428;11.974;2022-12-24T10:20:45;14.80;66.10
61323;DHT22;47203;48.428;11.974;2022-12-24T10:23:02;14.80;66.30
61323;DHT22;47203;48.428;11.974;2022-12-24T10:25:18;14.80;66.00
61323;DHT22;47203;48.428;11.974;2022-12-24T10:27:35;14.90;65.80
61323;DHT22;47203;48.428;11.974;2022-12-24T10:29:48;14.90;65.90
61323;DHT22;47203;48.428;11.974;2022-12-24T10:32:22;15.00;65.80
61323;DHT22;47203;48.428;11.974;2022-12-24T10:34:34;15.10;65.80
61323;DHT22;47203;48.428;11.974;2022-12-24T10:36:43;15.10;66.00
61323;DHT22;47203;48.428;11.974;2022-12-24T10:38:49;15.20;66.10
61323;DHT22;47203;48.428;11.974;2022-12-24T10:40:57;15.30;66.60
61323;DHT22;47203;48.428;11.974;2022-12-24T10:43:13;15.40;65.50
61323;DHT22;47203;48.428;11.974;2022-12-24T10:45:23;15.60;64.60
61323;DHT22;47203;48.428;11.974;2022-12-24T10:47:33;15.60;65.10
61323;DHT22;47203;48.428;11.974;2022-12-24T10:49:45;15.80;65.10
61323;DHT22;47203;48.428;11.974;2022-12-24T10:51:56;15.90;64.80
61323;DHT22;47203;48.428;11.974;2022-12-24T10:54:11;16.00;64.70
61323;DHT22;47203;48.428;11.974;2022-12-24T10:56:27;16.10;64.00
61323;DHT22;47203;48.428;11.974;2022-12-24T10:58:36;16.20;64.10
61323;DHT22;47203;48.428;11.974;2022-12-24T11:00:51;16.40;63.50
61323;DHT22;47203;48.428;11.974;2022-12-24T11:03:24;16.40;62.60
61323;DHT22;47203;48.428;11.974;2022-12-24T11:05:36;16.50;62.20
61323;DHT22;47203;48.428;11.974;2022-12-24T11:07:42;16.50;62.40
61323;DHT22;47203;48.428;11.974;2022-12-24T11:10:06;16.60;62.10
61323;DHT22;47203;48.428;11.974;2022-12-24T11:12:17;16.70;62.20
61323;DHT22;47203;48.428;11.974;2022-12-24T11:14:33;16.70;61.00
61323;DHT22;47203;48.428;11.974;2022-12-24T11:16:48;16.80;60.90
61323;DHT22;47203;48.428;11.974;2022-12-24T11:18:58;16.80;60.60
61323;DHT22;47203;48.428;11.974;2022-12-24T11:21:05;16.90;61.10
61323;DHT22;47203;48.428;11.974;2022-12-24T11:23:14;16.90;60.80
61323;DHT22;47203;48.428;11.974;2022-12-24T11:25:23;17.00;60.00
61323;DHT22;47203;48.428;11.974;2022-12-24T11:27:39;17.10;60.10
61323;DHT22;47203;48.428;11.974;2022-12-24T11:29:49;17.10;59.20
61323;DHT22;47203;48.428;11.974;2022-12-24T11:32:16;17.20;59.70
61323;DHT22;47203;48.428;11.974;2022-12-24T11:34:27;17.30;58.80
61323;DHT22;47203;48.428;11.974;2022-12-24T11:36:34;17.30;59.10
61323;DHT22;47203;48.428;11.974;2022-12-24T11:38:40;17.40;59.40
61323;DHT22;47203;48.428;11.974;2022-12-24T11:40:47;17.40;58.70
61323;DHT22;47203;48.428;11.974;2022-12-24T11:42:58;17.50;58.50
61323;DHT22;47203;48.428;11.974;2022-12-24T11:45:20;17.50;57.60
61323;DHT22;47203;48.428;11.974;2022-12-24T11:47:33;17.50;57.30
61323;DHT22;47203;48.428;11.974;2022-12-24T11:49:40;17.60;57.60
61323;DHT22;47203;48.428;11.974;2022-12-24T11:54:36;17.60;57.00
61323;DHT22;47203;48.428;11.974;2022-12-24T11:56:52;17.60;57.30
61323;DHT22;47203;48.428;11.974;2022-12-24T11:59:10;17.60;57.40
61323;DHT22;47203;48.428;11.974;2022-12-24T12:01:25;17.70;57.10
61323;DHT22;47203;48.428;11.974;2022-12-24T12:03:38;17.60;57.40
61323;DHT22;47203;48.428;11.974;2022-12-24T12:05:47;17.60;57.00
61323;DHT22;47203;48.428;11.974;2022-12-24T12:07:57;17.60;57.70
61323;DHT22;47203;48.428;11.974;2022-12-24T12:10:18;17.60;56.90
61323;DHT22;47203;48.428;11.974;2022-12-24T12:12:30;17.60;56.10
61323;DHT22;47203;48.428;11.974;2022-12-24T12:14:45;17.60;56.50
61323;DHT22;47203;48.428;11.974;2022-12-24T12:17:02;17.50;56.60
61323;DHT22;47203;48.428;11.974;2022-12-24T12:19:18;17.80;56.80
61323;DHT22;47203;48.428;11.974;2022-12-24T12:21:33;17.40;56.70
61323;DHT22;47203;48.428;11.974;2022-12-24T12:23:46;17.40;56.40
61323;DHT22;47203;48.428;11.974;2022-12-24T12:25:58;17.40;56.80
61323;DHT22;47203;48.428;11.974;2022-12-24T12:28:10;17.40;57.20
61323;DHT22;47203;48.428;11.974;2022-12-24T12:30:26;17.50;55.90
61323;DHT22;47203;48.428;11.974;2022-12-24T12:32:42;17.40;56.60
61323;DHT22;47203;48.428;11.974;2022-12-24T12:35:00;17.40;55.80
61323;DHT22;47203;48.428;11.974;2022-12-24T12:37:17;17.40;55.90
61323;DHT22;47203;48.428;11.974;2022-12-24T12:39:29;17.40;56.50
61323;DHT22;47203;48.428;11.974;2022-12-24T12:41:46;17.40;56.40
61323;DHT22;47203;48.428;11.974;2022-12-24T12:44:13;17.40;55.70
61323;DHT22;47203;48.428;11.974;2022-12-24T13:45:55;17.00;56.30
61323;DHT22;47203;48.428;11.974;2022-12-24T13:48:17;16.90;56.40
61323;DHT22;47203;48.428;11.974;2022-12-24T13:50:35;16.90;55.90
61323;DHT22;47203;48.428;11.974;2022-12-24T13:52:50;16.90;56.30
61323;DHT22;47203;48.428;11.974;2022-12-24T13:55:00;16.80;56.00
61323;DHT22;47203;48.428;11.974;2022-12-24T13:57:28;16.80;57.00
61323;DHT22;47203;48.428;11.974;2022-12-24T13:59:37;16.70;56.20
61323;DHT22;47203;48.428;11.974;2022-12-24T14:01:46;16.60;56.50
61323;DHT22;47203;48.428;11.974;2022-12-24T14:03:54;16.50;56.40
61323;DHT22;47203;48.428;11.974;2022-12-24T14:06:06;16.70;56.80
61323;DHT22;47203;48.428;11.974;2022-12-24T14:08:24;16.30;56.80
61323;DHT22;47203;48.428;11.974;2022-12-24T14:10:45;16.20;56.80
61323;DHT22;47203;48.428;11.974;2022-12-24T14:13:04;16.20;57.20
61323;DHT22;47203;48.428;11.974;2022-12-24T14:18:10;16.00;57.10
61323;DHT22;47203;48.428;11.974;2022-12-24T14:20:53;16.10;57.50
61323;DHT22;47203;48.428;11.974;2022-12-24T14:23:02;15.90;57.90
61323;DHT22;47203;48.428;11.974;2022-12-24T14:25:13;15.90;58.00
61323;DHT22;47203;48.428;11.974;2022-12-24T14:27:23;15.90;57.90
61323;DHT22;47203;48.428;11.974;2022-12-24T14:29:43;15.90;58.20
61323;DHT22;47203;48.428;11.974;2022-12-24T14:31:55;15.90;57.90
61323;DHT22;47203;48.428;11.974;2022-12-24T14:34:12;15.80;57.90
61323;DHT22;47203;48.428;11.974;2022-12-24T14:36:21;15.70;57.70
61323;DHT22;47203;48.428;11.974;2022-12-24T14:38:28;15.70;57.90
61323;DHT22;47203;48.428;11.974;2022-12-24T14:40:40;15.80;58.10
61323;DHT22;47203;48.428;11.974;2022-12-24T14:43:00;15.60;58.00
61323;DHT22;47203;48.428;11.974;2022-12-24T14:45:27;17.50;59.10
61323;DHT22;47203;48.428;11.974;2022-12-24T14:47:42;15.60;58.00
61323;DHT22;47203;48.428;11.974;2022-12-24T14:50:14;15.60;58.20
61323;DHT22;47203;48.428;11.974;2022-12-24T14:52:42;15.60;58.00
61323;DHT22;47203;48.428;11.974;2022-12-24T14:55:29;15.50;58.20
61323;DHT22;47203;48.428;11.974;2022-12-24T14:57:39;15.50;58.20
61323;DHT22;47203;48.428;11.974;2022-12-24T14:59:46;15.40;58.60
61323;DHT22;47203;48.428;11.974;2022-12-24T15:01:53;15.30;58.50
61323;DHT22;47203;48.428;11.974;2022-12-24T15:04:00;15.30;58.80
61323;DHT22;47203;48.428;11.974;2022-12-24T15:06:11;15.30;58.70
61323;DHT22;47203;48.428;11.974;2022-12-24T15:08:22;15.20;58.60
61323;DHT22;47203;48.428;11.974;2022-12-24T15:10:34;15.20;58.50
61323;DHT22;47203;48.428;11.974;2022-12-24T15:12:43;15.20;58.70
61323;DHT22;47203;48.428;11.974;2022-12-24T15:14:48;15.10;58.70
61323;DHT22;47203;48.428;11.974;2022-12-24T15:16:57;14.50;58.50
61323;DHT22;47203;48.428;11.974;2022-12-24T15:19:06;15.10;58.90
61323;DHT22;47203;48.428;11.974;2022-12-24T15:21:28;15.10;58.80
61323;DHT22;47203;48.428;11.974;2022-12-24T15:23:35;15.00;58.80
61323;DHT22;47203;48.428;11.974;2022-12-24T15:25:48;15.10;59.00
61323;DHT22;47203;48.428;11.974;2022-12-24T15:27:53;15.30;59.00
61323;DHT22;47203;48.428;11.974;2022-12-24T15:30:07;15.10;58.90
61323;DHT22;47203;48.428;11.974;2022-12-24T15:32:18;15.00;58.90
61323;DHT22;47203;48.428;11.974;2022-12-24T15:34:27;15.00;59.10
61323;DHT22;47203;48.428;11.974;2022-12-24T15:36:37;15.00;59.30
61323;DHT22;47203;48.428;11.974;2022-12-24T15:38:43;14.90;59.40
61323;DHT22;47203;48.428;11.974;2022-12-24T15:44:11;14.90;59.50
61323;DHT22;47203;48.428;11.974;2022-12-24T15:46:21;14.90;59.70
61323;DHT22;47203;48.428;11.974;2022-12-24T15:48:30;14.90;59.80
61323;DHT22;47203;48.428;11.974;2022-12-24T15:50:43;14.80;59.80
61323;DHT22;47203;48.428;11.974;2022-12-24T15:52:53;14.80;59.60
61323;DHT22;47203;48.428;11.974;2022-12-24T15:55:26;14.80;59.60
61323;DHT22;47203;48.428;11.974;2022-12-24T15:57:33;14.90;59.40
61323;DHT22;47203;48.428;11.974;2022-12-24T15:59:39;14.80;59.50
61323;DHT22;47203;48.428;11.974;2022-12-24T16:01:46;14.70;59.30
61323;DHT22;47203;48.428;11.974;2022-12-24T16:03:57;14.70;59.40
61323;DHT22;47203;48.428;11.974;2022-12-24T16:06:04;14.80;59.30
61323;DHT22;47203;48.428;11.974;2022-12-24T16:08:37;14.70;59.50
61323;DHT22;47203;48.428;11.974;2022-12-24T16:10:44;14.70;59.30
61323;DHT22;47203;48.428;11.974;2022-12-24T16:12:51;16.70;60.80
61323;DHT22;47203;48.428;11.974;2022-12-24T16:14:59;15.50;60.00
61323;DHT22;47203;48.428;11.974;2022-12-24T16:17:16;14.70;59.50
61323;DHT22;47203;48.428;11.974;2022-12-24T16:19:26;14.60;59.20
61323;DHT22;47203;48.428;11.974;2022-12-24T16:21:41;14.60;59.40
61323;DHT22;47203;48.428;11.974;2022-12-24T16:23:52;15.70;60.00